KISW/ISW METAR and TAF weather

Enter ICAO airport designator
Station Type Date Time Source
KISW METAR 2022/11/30 10:54 UTC NOAA

KISW 301054Z AUTO 28012G26KT 10SM OVC021 M05/M09 A2974 RMK AO2 PK WND 28026/1011 SNE18 SLP082 P0000 T10501094 $


Station Type Date Time Source
KISW Decoded METAR 2022/11/30 10:54 UTC NOAA

WI RAPIDS ALEXANDER FIELD, WI, United States (KISW) 44-22N 89-50W 307M
Nov 30, 2022 - 05:54 AM EST / 2022.11.30 1054 UTC
Wind: from the W (280 degrees) at 14 MPH (12 KT) gusting to 30 MPH (26 KT):0
Visibility: 10 mile(s):0
Sky conditions: overcast
Precipitation last hour: A trace
Temperature: 23.0 F (-5.0 C)
Windchill: 10 F (-12 C):1
Dew Point: 15.1 F (-9.4 C)
Relative Humidity: 71%
Pressure (altimeter): 29.74 in. Hg (1007 hPa)
ob: KISW 301054Z AUTO 28012G26KT 10SM OVC021 M05/M09 A2974 RMK AO2 PK WND 28026/1011 SNE18 SLP082 P0000 T10501094
cycle: 11

Station Type Date Time Source
KISW TAF UTC NOAA

Error!

Example: see airport list